sensor_id;sensor_type;location;lat;lon;timestamp;P1;durP1;ratioP1;P2;durP2;ratioP2
428;SDS011;201;48.758;9.290;2022-08-03T00:00:38;6.37;;;4.80;;
428;SDS011;201;48.758;9.290;2022-08-03T00:03:04;6.33;;;4.47;;
428;SDS011;201;48.758;9.290;2022-08-03T00:05:29;5.40;;;5.10;;
428;SDS011;201;48.758;9.290;2022-08-03T00:07:57;6.63;;;5.00;;
428;SDS011;201;48.758;9.290;2022-08-03T00:10:23;5.63;;;4.80;;
428;SDS011;201;48.758;9.290;2022-08-03T00:12:49;5.50;;;4.73;;
428;SDS011;201;48.758;9.290;2022-08-03T00:15:15;5.00;;;4.70;;
428;SDS011;201;48.758;9.290;2022-08-03T00:17:40;5.20;;;4.57;;
428;SDS011;201;48.758;9.290;2022-08-03T00:20:06;6.63;;;4.87;;
428;SDS011;201;48.758;9.290;2022-08-03T00:22:33;4.90;;;4.60;;
428;SDS011;201;48.758;9.290;2022-08-03T00:24:59;7.43;;;5.30;;
428;SDS011;201;48.758;9.290;2022-08-03T00:27:25;4.67;;;4.37;;
428;SDS011;201;48.758;9.290;2022-08-03T00:29:50;6.23;;;4.10;;
428;SDS011;201;48.758;9.290;2022-08-03T00:32:16;5.80;;;4.17;;
428;SDS011;201;48.758;9.290;2022-08-03T00:34:41;4.80;;;4.50;;
428;SDS011;201;48.758;9.290;2022-08-03T00:37:07;5.20;;;4.90;;
428;SDS011;201;48.758;9.290;2022-08-03T00:39:32;5.43;;;4.77;;
428;SDS011;201;48.758;9.290;2022-08-03T00:42:00;5.20;;;4.77;;
428;SDS011;201;48.758;9.290;2022-08-03T00:44:29;5.93;;;5.23;;
428;SDS011;201;48.758;9.290;2022-08-03T00:46:55;4.80;;;4.50;;
428;SDS011;201;48.758;9.290;2022-08-03T00:49:20;4.80;;;4.50;;
428;SDS011;201;48.758;9.290;2022-08-03T00:51:46;4.93;;;4.70;;
428;SDS011;201;48.758;9.290;2022-08-03T00:54:12;7.20;;;4.63;;
428;SDS011;201;48.758;9.290;2022-08-03T00:56:38;4.93;;;4.63;;
428;SDS011;201;48.758;9.290;2022-08-03T00:59:05;5.03;;;4.80;;
428;SDS011;201;48.758;9.290;2022-08-03T01:01:31;5.03;;;4.73;;
428;SDS011;201;48.758;9.290;2022-08-03T01:03:56;7.10;;;4.80;;
428;SDS011;201;48.758;9.290;2022-08-03T01:06:24;5.07;;;4.80;;
428;SDS011;201;48.758;9.290;2022-08-03T01:11:50;6.30;;;5.53;;
428;SDS011;201;48.758;9.290;2022-08-03T01:14:40;6.70;;;4.97;;
428;SDS011;201;48.758;9.290;2022-08-03T01:17:24;5.30;;;5.00;;
428;SDS011;201;48.758;9.290;2022-08-03T01:20:07;5.80;;;5.50;;
428;SDS011;201;48.758;9.290;2022-08-03T01:22:38;5.80;;;5.37;;
428;SDS011;201;48.758;9.290;2022-08-03T01:30:10;5.20;;;4.90;;
428;SDS011;201;48.758;9.290;2022-08-03T01:32:41;5.83;;;5.53;;
428;SDS011;201;48.758;9.290;2022-08-03T01:35:17;5.57;;;5.27;;
428;SDS011;201;48.758;9.290;2022-08-03T01:38:09;7.90;;;5.20;;
428;SDS011;201;48.758;9.290;2022-08-03T01:40:42;5.63;;;5.33;;
428;SDS011;201;48.758;9.290;2022-08-03T01:43:15;6.67;;;4.93;;
428;SDS011;201;48.758;9.290;2022-08-03T01:45:43;5.40;;;5.10;;
428;SDS011;201;48.758;9.290;2022-08-03T01:48:09;6.40;;;5.03;;
428;SDS011;201;48.758;9.290;2022-08-03T01:50:37;4.80;;;4.53;;
428;SDS011;201;48.758;9.290;2022-08-03T01:53:04;5.47;;;5.17;;
428;SDS011;201;48.758;9.290;2022-08-03T01:55:31;12.20;;;9.47;;
428;SDS011;201;48.758;9.290;2022-08-03T01:58:01;5.67;;;5.07;;
428;SDS011;201;48.758;9.290;2022-08-03T02:00:27;7.10;;;5.63;;
428;SDS011;201;48.758;9.290;2022-08-03T02:02:54;5.97;;;5.67;;
428;SDS011;201;48.758;9.290;2022-08-03T02:05:21;4.97;;;4.67;;
428;SDS011;201;48.758;9.290;2022-08-03T02:07:48;4.63;;;4.33;;
428;SDS011;201;48.758;9.290;2022-08-03T02:10:15;4.80;;;4.50;;
428;SDS011;201;48.758;9.290;2022-08-03T02:12:43;5.37;;;5.07;;
428;SDS011;201;48.758;9.290;2022-08-03T02:15:11;5.70;;;5.40;;
428;SDS011;201;48.758;9.290;2022-08-03T02:17:39;7.23;;;5.20;;
428;SDS011;201;48.758;9.290;2022-08-03T02:20:10;5.70;;;5.13;;
428;SDS011;201;48.758;9.290;2022-08-03T02:22:40;10.10;;;4.80;;
428;SDS011;201;48.758;9.290;2022-08-03T02:25:07;6.70;;;5.83;;
428;SDS011;201;48.758;9.290;2022-08-03T02:27:34;5.77;;;5.47;;
428;SDS011;201;48.758;9.290;2022-08-03T02:30:06;5.40;;;5.10;;
428;SDS011;201;48.758;9.290;2022-08-03T02:32:34;8.03;;;5.80;;
428;SDS011;201;48.758;9.290;2022-08-03T02:35:03;5.50;;;5.20;;
428;SDS011;201;48.758;9.290;2022-08-03T02:37:33;6.70;;;5.73;;
428;SDS011;201;48.758;9.290;2022-08-03T02:40:03;6.00;;;5.70;;
428;SDS011;201;48.758;9.290;2022-08-03T02:42:32;6.73;;;6.33;;
428;SDS011;201;48.758;9.290;2022-08-03T02:44:59;8.33;;;5.97;;
428;SDS011;201;48.758;9.290;2022-08-03T02:47:29;6.07;;;5.80;;
428;SDS011;201;48.758;9.290;2022-08-03T02:49:56;6.33;;;5.97;;
428;SDS011;201;48.758;9.290;2022-08-03T02:52:25;6.60;;;6.20;;
428;SDS011;201;48.758;9.290;2022-08-03T02:54:54;6.00;;;5.73;;
428;SDS011;201;48.758;9.290;2022-08-03T02:57:23;7.50;;;7.10;;
428;SDS011;201;48.758;9.290;2022-08-03T02:59:51;6.70;;;6.30;;
428;SDS011;201;48.758;9.290;2022-08-03T03:02:19;6.67;;;6.27;;
428;SDS011;201;48.758;9.290;2022-08-03T03:04:45;7.20;;;6.03;;
428;SDS011;201;48.758;9.290;2022-08-03T03:07:15;7.10;;;6.70;;
428;SDS011;201;48.758;9.290;2022-08-03T03:09:41;6.70;;;6.30;;
428;SDS011;201;48.758;9.290;2022-08-03T03:12:07;6.90;;;6.50;;
428;SDS011;201;48.758;9.290;2022-08-03T03:14:35;8.93;;;5.53;;
428;SDS011;201;48.758;9.290;2022-08-03T03:17:01;6.33;;;5.97;;
428;SDS011;201;48.758;9.290;2022-08-03T03:19:28;5.80;;;5.60;;
428;SDS011;201;48.758;9.290;2022-08-03T03:21:56;6.77;;;5.77;;
428;SDS011;201;48.758;9.290;2022-08-03T03:24:26;7.27;;;6.00;;
428;SDS011;201;48.758;9.290;2022-08-03T03:26:52;5.67;;;5.37;;
428;SDS011;201;48.758;9.290;2022-08-03T03:29:18;7.83;;;5.37;;
428;SDS011;201;48.758;9.290;2022-08-03T03:31:44;6.40;;;6.00;;
428;SDS011;201;48.758;9.290;2022-08-03T03:34:10;9.80;;;6.50;;
428;SDS011;201;48.758;9.290;2022-08-03T03:36:36;5.77;;;5.10;;
428;SDS011;201;48.758;9.290;2022-08-03T03:39:02;6.43;;;5.77;;
428;SDS011;201;48.758;9.290;2022-08-03T03:41:28;6.33;;;5.37;;
428;SDS011;201;48.758;9.290;2022-08-03T03:43:53;6.50;;;6.10;;
428;SDS011;201;48.758;9.290;2022-08-03T03:46:19;6.60;;;6.20;;
428;SDS011;201;48.758;9.290;2022-08-03T03:48:45;5.77;;;5.57;;
428;SDS011;201;48.758;9.290;2022-08-03T03:51:11;5.67;;;5.37;;
428;SDS011;201;48.758;9.290;2022-08-03T03:53:37;6.77;;;5.97;;
428;SDS011;201;48.758;9.290;2022-08-03T03:56:02;11.50;;;5.67;;
428;SDS011;201;48.758;9.290;2022-08-03T03:58:29;5.40;;;5.10;;
428;SDS011;201;48.758;9.290;2022-08-03T04:00:55;6.33;;;5.97;;
428;SDS011;201;48.758;9.290;2022-08-03T04:03:21;6.37;;;6.00;;
428;SDS011;201;48.758;9.290;2022-08-03T04:05:47;7.03;;;5.80;;
428;SDS011;201;48.758;9.290;2022-08-03T04:08:31;10.13;;;6.13;;
428;SDS011;201;48.758;9.290;2022-08-03T04:11:21;6.40;;;6.03;;
428;SDS011;201;48.758;9.290;2022-08-03T04:16:26;6.90;;;6.50;;
428;SDS011;201;48.758;9.290;2022-08-03T04:18:56;8.50;;;6.60;;
428;SDS011;201;48.758;9.290;2022-08-03T04:21:25;7.57;;;6.13;;
428;SDS011;201;48.758;9.290;2022-08-03T04:23:54;6.60;;;6.20;;
428;SDS011;201;48.758;9.290;2022-08-03T04:26:28;6.37;;;5.77;;
428;SDS011;201;48.758;9.290;2022-08-03T04:28:57;6.47;;;5.70;;
428;SDS011;201;48.758;9.290;2022-08-03T04:31:24;8.03;;;6.67;;
428;SDS011;201;48.758;9.290;2022-08-03T04:33:51;7.43;;;7.03;;
428;SDS011;201;48.758;9.290;2022-08-03T04:36:19;7.23;;;6.80;;
428;SDS011;201;48.758;9.290;2022-08-03T04:38:54;7.20;;;6.60;;
428;SDS011;201;48.758;9.290;2022-08-03T04:41:32;6.67;;;6.27;;
428;SDS011;201;48.758;9.290;2022-08-03T04:43:59;6.73;;;6.33;;
428;SDS011;201;48.758;9.290;2022-08-03T04:46:27;6.77;;;6.37;;
428;SDS011;201;48.758;9.290;2022-08-03T04:48:58;7.30;;;6.90;;
428;SDS011;201;48.758;9.290;2022-08-03T04:51:24;6.53;;;6.13;;
428;SDS011;201;48.758;9.290;2022-08-03T04:53:50;6.50;;;5.90;;
428;SDS011;201;48.758;9.290;2022-08-03T04:56:15;7.00;;;6.60;;
428;SDS011;201;48.758;9.290;2022-08-03T04:58:41;5.70;;;5.40;;
428;SDS011;201;48.758;9.290;2022-08-03T05:01:07;7.63;;;7.23;;
428;SDS011;201;48.758;9.290;2022-08-03T05:03:32;7.73;;;6.67;;
428;SDS011;201;48.758;9.290;2022-08-03T05:05:58;8.23;;;6.87;;
428;SDS011;201;48.758;9.290;2022-08-03T05:08:23;7.07;;;6.33;;
428;SDS011;201;48.758;9.290;2022-08-03T05:10:49;7.20;;;5.97;;
428;SDS011;201;48.758;9.290;2022-08-03T05:13:14;9.43;;;6.03;;
428;SDS011;201;48.758;9.290;2022-08-03T05:15:40;5.70;;;5.40;;
428;SDS011;201;48.758;9.290;2022-08-03T05:18:06;7.87;;;5.97;;
428;SDS011;201;48.758;9.290;2022-08-03T05:20:31;6.53;;;5.73;;
428;SDS011;201;48.758;9.290;2022-08-03T05:22:57;6.87;;;6.03;;
428;SDS011;201;48.758;9.290;2022-08-03T05:25:24;6.23;;;5.77;;
428;SDS011;201;48.758;9.290;2022-08-03T05:27:50;8.20;;;5.47;;
428;SDS011;201;48.758;9.290;2022-08-03T05:30:15;7.13;;;5.60;;
428;SDS011;201;48.758;9.290;2022-08-03T05:32:41;5.23;;;4.70;;
428;SDS011;201;48.758;9.290;2022-08-03T05:35:07;5.43;;;5.17;;
428;SDS011;201;48.758;9.290;2022-08-03T05:37:32;5.10;;;4.80;;
428;SDS011;201;48.758;9.290;2022-08-03T05:39:58;6.43;;;4.37;;
428;SDS011;201;48.758;9.290;2022-08-03T05:42:23;5.00;;;4.70;;
428;SDS011;201;48.758;9.290;2022-08-03T05:44:49;4.43;;;4.13;;
428;SDS011;201;48.758;9.290;2022-08-03T05:47:14;4.77;;;4.47;;
428;SDS011;201;48.758;9.290;2022-08-03T05:49:40;6.07;;;4.80;;
428;SDS011;201;48.758;9.290;2022-08-03T05:52:05;5.80;;;5.17;;
428;SDS011;201;48.758;9.290;2022-08-03T05:54:31;5.40;;;4.30;;
428;SDS011;201;48.758;9.290;2022-08-03T05:56:56;4.67;;;4.37;;
428;SDS011;201;48.758;9.290;2022-08-03T05:59:22;5.77;;;4.00;;
428;SDS011;201;48.758;9.290;2022-08-03T06:01:49;7.47;;;4.60;;
428;SDS011;201;48.758;9.290;2022-08-03T06:04:15;4.60;;;4.30;;
428;SDS011;201;48.758;9.290;2022-08-03T06:06:40;6.37;;;6.00;;
428;SDS011;201;48.758;9.290;2022-08-03T06:09:07;5.33;;;4.50;;
428;SDS011;201;48.758;9.290;2022-08-03T06:11:34;5.50;;;4.27;;
428;SDS011;201;48.758;9.290;2022-08-03T06:14:00;4.33;;;3.77;;
428;SDS011;201;48.758;9.290;2022-08-03T06:16:25;3.73;;;3.43;;
428;SDS011;201;48.758;9.290;2022-08-03T06:18:51;4.30;;;4.00;;
428;SDS011;201;48.758;9.290;2022-08-03T06:21:16;4.33;;;3.60;;
428;SDS011;201;48.758;9.290;2022-08-03T06:23:42;4.33;;;3.90;;
428;SDS011;201;48.758;9.290;2022-08-03T06:26:08;3.83;;;3.50;;
428;SDS011;201;48.758;9.290;2022-08-03T06:28:34;4.77;;;4.47;;
428;SDS011;201;48.758;9.290;2022-08-03T06:31:00;4.13;;;3.90;;
428;SDS011;201;48.758;9.290;2022-08-03T06:33:27;5.27;;;4.37;;
428;SDS011;201;48.758;9.290;2022-08-03T06:35:53;4.00;;;3.83;;
428;SDS011;201;48.758;9.290;2022-08-03T06:38:18;4.27;;;4.00;;
428;SDS011;201;48.758;9.290;2022-08-03T06:40:44;4.43;;;4.13;;
428;SDS011;201;48.758;9.290;2022-08-03T06:43:09;4.30;;;4.00;;
428;SDS011;201;48.758;9.290;2022-08-03T06:45:35;4.07;;;3.87;;
428;SDS011;201;48.758;9.290;2022-08-03T06:48:05;3.80;;;3.60;;
428;SDS011;201;48.758;9.290;2022-08-03T06:50:33;3.83;;;3.63;;
428;SDS011;201;48.758;9.290;2022-08-03T06:52:59;4.10;;;3.30;;
428;SDS011;201;48.758;9.290;2022-08-03T06:55:25;4.60;;;3.00;;
428;SDS011;201;48.758;9.290;2022-08-03T06:57:51;3.90;;;2.97;;
428;SDS011;201;48.758;9.290;2022-08-03T07:00:17;3.47;;;3.27;;
428;SDS011;201;48.758;9.290;2022-08-03T07:02:43;3.57;;;3.37;;
428;SDS011;201;48.758;9.290;2022-08-03T07:05:09;3.90;;;3.70;;
428;SDS011;201;48.758;9.290;2022-08-03T07:07:35;3.73;;;3.13;;
428;SDS011;201;48.758;9.290;2022-08-03T07:10:02;3.53;;;3.33;;
428;SDS011;201;48.758;9.290;2022-08-03T07:12:29;3.60;;;3.40;;
428;SDS011;201;48.758;9.290;2022-08-03T07:14:56;4.50;;;3.20;;
428;SDS011;201;48.758;9.290;2022-08-03T07:17:22;3.27;;;3.07;;
428;SDS011;201;48.758;9.290;2022-08-03T07:19:47;3.30;;;3.13;;
428;SDS011;201;48.758;9.290;2022-08-03T07:22:13;5.50;;;3.47;;
428;SDS011;201;48.758;9.290;2022-08-03T07:24:39;8.43;;;3.37;;
428;SDS011;201;48.758;9.290;2022-08-03T07:27:06;3.70;;;2.57;;
428;SDS011;201;48.758;9.290;2022-08-03T07:29:33;3.37;;;3.17;;
428;SDS011;201;48.758;9.290;2022-08-03T07:31:59;2.90;;;2.60;;
428;SDS011;201;48.758;9.290;2022-08-03T07:34:25;2.87;;;2.67;;
428;SDS011;201;48.758;9.290;2022-08-03T07:36:50;2.80;;;2.60;;
428;SDS011;201;48.758;9.290;2022-08-03T07:39:16;2.47;;;2.27;;
428;SDS011;201;48.758;9.290;2022-08-03T07:41:41;3.30;;;3.10;;
428;SDS011;201;48.758;9.290;2022-08-03T07:44:07;3.50;;;2.63;;
428;SDS011;201;48.758;9.290;2022-08-03T07:46:33;2.43;;;2.23;;
428;SDS011;201;48.758;9.290;2022-08-03T07:48:58;1.83;;;1.73;;
428;SDS011;201;48.758;9.290;2022-08-03T07:51:24;2.53;;;2.37;;
428;SDS011;201;48.758;9.290;2022-08-03T07:53:49;2.87;;;1.80;;
428;SDS011;201;48.758;9.290;2022-08-03T07:56:15;1.87;;;1.77;;
428;SDS011;201;48.758;9.290;2022-08-03T07:58:40;2.73;;;1.77;;
428;SDS011;201;48.758;9.290;2022-08-03T08:01:06;2.10;;;1.77;;
428;SDS011;201;48.758;9.290;2022-08-03T08:03:32;2.53;;;1.70;;
428;SDS011;201;48.758;9.290;2022-08-03T08:05:57;2.40;;;2.20;;
428;SDS011;201;48.758;9.290;2022-08-03T08:08:23;1.80;;;1.70;;
428;SDS011;201;48.758;9.290;2022-08-03T08:10:48;2.40;;;1.60;;
428;SDS011;201;48.758;9.290;2022-08-03T08:13:14;2.27;;;2.07;;
428;SDS011;201;48.758;9.290;2022-08-03T08:15:39;2.10;;;2.00;;
428;SDS011;201;48.758;9.290;2022-08-03T08:18:05;1.70;;;1.60;;
428;SDS011;201;48.758;9.290;2022-08-03T08:20:32;3.53;;;2.07;;
428;SDS011;201;48.758;9.290;2022-08-03T08:22:59;1.73;;;1.63;;
428;SDS011;201;48.758;9.290;2022-08-03T08:25:26;1.90;;;1.83;;
428;SDS011;201;48.758;9.290;2022-08-03T08:27:53;1.90;;;1.80;;
428;SDS011;201;48.758;9.290;2022-08-03T08:30:19;1.70;;;1.20;;
428;SDS011;201;48.758;9.290;2022-08-03T08:32:46;3.07;;;1.50;;
428;SDS011;201;48.758;9.290;2022-08-03T08:35:12;1.30;;;1.20;;
428;SDS011;201;48.758;9.290;2022-08-03T08:37:38;1.93;;;0.93;;
428;SDS011;201;48.758;9.290;2022-08-03T08:40:04;1.30;;;1.20;;
428;SDS011;201;48.758;9.290;2022-08-03T08:42:31;2.33;;;1.60;;
428;SDS011;201;48.758;9.290;2022-08-03T08:44:56;1.23;;;1.00;;
428;SDS011;201;48.758;9.290;2022-08-03T08:47:24;0.90;;;0.80;;
428;SDS011;201;48.758;9.290;2022-08-03T08:49:52;1.83;;;0.90;;
428;SDS011;201;48.758;9.290;2022-08-03T08:52:21;1.13;;;1.03;;
428;SDS011;201;48.758;9.290;2022-08-03T08:54:51;1.10;;;1.00;;
428;SDS011;201;48.758;9.290;2022-08-03T08:57:20;0.87;;;0.80;;
428;SDS011;201;48.758;9.290;2022-08-03T08:59:53;1.10;;;0.90;;
428;SDS011;201;48.758;9.290;2022-08-03T09:02:21;1.00;;;1.00;;
428;SDS011;201;48.758;9.290;2022-08-03T09:04:47;1.33;;;1.20;;
428;SDS011;201;48.758;9.290;2022-08-03T09:07:13;1.63;;;1.20;;
428;SDS011;201;48.758;9.290;2022-08-03T09:09:39;1.20;;;1.10;;
428;SDS011;201;48.758;9.290;2022-08-03T09:12:04;2.80;;;1.13;;
428;SDS011;201;48.758;9.290;2022-08-03T09:14:30;1.40;;;1.30;;
428;SDS011;201;48.758;9.290;2022-08-03T09:16:57;2.90;;;1.60;;
428;SDS011;201;48.758;9.290;2022-08-03T09:19:27;3.60;;;1.23;;
428;SDS011;201;48.758;9.290;2022-08-03T09:22:13;1.83;;;1.30;;
428;SDS011;201;48.758;9.290;2022-08-03T09:27:27;1.17;;;1.00;;
428;SDS011;201;48.758;9.290;2022-08-03T09:29:53;1.00;;;0.90;;
428;SDS011;201;48.758;9.290;2022-08-03T09:32:19;1.00;;;0.90;;
428;SDS011;201;48.758;9.290;2022-08-03T09:34:46;1.93;;;1.00;;
428;SDS011;201;48.758;9.290;2022-08-03T09:37:13;1.07;;;1.00;;
428;SDS011;201;48.758;9.290;2022-08-03T09:39:40;1.47;;;0.80;;
428;SDS011;201;48.758;9.290;2022-08-03T09:42:07;4.57;;;3.67;;
428;SDS011;201;48.758;9.290;2022-08-03T09:44:38;1.37;;;0.97;;
428;SDS011;201;48.758;9.290;2022-08-03T09:47:06;1.17;;;1.13;;
428;SDS011;201;48.758;9.290;2022-08-03T09:49:33;1.73;;;0.87;;
428;SDS011;201;48.758;9.290;2022-08-03T09:52:00;4.07;;;1.30;;
428;SDS011;201;48.758;9.290;2022-08-03T09:54:28;2.00;;;1.17;;
428;SDS011;201;48.758;9.290;2022-08-03T09:56:55;2.23;;;1.30;;
428;SDS011;201;48.758;9.290;2022-08-03T09:59:23;0.93;;;0.63;;
428;SDS011;201;48.758;9.290;2022-08-03T10:01:56;1.30;;;1.10;;
428;SDS011;201;48.758;9.290;2022-08-03T10:04:23;1.30;;;1.17;;
428;SDS011;201;48.758;9.290;2022-08-03T10:07:08;2.33;;;1.43;;
428;SDS011;201;48.758;9.290;2022-08-03T10:09:35;2.30;;;1.33;;
428;SDS011;201;48.758;9.290;2022-08-03T10:12:08;2.03;;;0.80;;
428;SDS011;201;48.758;9.290;2022-08-03T10:14:36;1.33;;;1.10;;
428;SDS011;201;48.758;9.290;2022-08-03T10:17:03;1.07;;;1.03;;
428;SDS011;201;48.758;9.290;2022-08-03T10:19:28;1.47;;;1.37;;
428;SDS011;201;48.758;9.290;2022-08-03T10:21:54;1.40;;;1.13;;
428;SDS011;201;48.758;9.290;2022-08-03T10:24:25;1.40;;;1.30;;
428;SDS011;201;48.758;9.290;2022-08-03T10:26:56;2.77;;;1.27;;
428;SDS011;201;48.758;9.290;2022-08-03T10:29:27;1.30;;;1.20;;
428;SDS011;201;48.758;9.290;2022-08-03T10:31:57;1.40;;;1.30;;
428;SDS011;201;48.758;9.290;2022-08-03T10:34:23;2.20;;;1.30;;
428;SDS011;201;48.758;9.290;2022-08-03T10:36:51;1.13;;;1.03;;
428;SDS011;201;48.758;9.290;2022-08-03T10:39:20;1.33;;;1.23;;
428;SDS011;201;48.758;9.290;2022-08-03T10:41:48;1.60;;;1.40;;
428;SDS011;201;48.758;9.290;2022-08-03T10:44:19;1.60;;;1.10;;
428;SDS011;201;48.758;9.290;2022-08-03T10:46:47;5.37;;;1.60;;
428;SDS011;201;48.758;9.290;2022-08-03T10:49:14;1.80;;;1.20;;
428;SDS011;201;48.758;9.290;2022-08-03T10:51:43;1.20;;;1.10;;
428;SDS011;201;48.758;9.290;2022-08-03T11:00:09;1.40;;;1.30;;
428;SDS011;201;48.758;9.290;2022-08-03T11:05:31;2.70;;;1.37;;
428;SDS011;201;48.758;9.290;2022-08-03T11:10:42;2.40;;;1.70;;
428;SDS011;201;48.758;9.290;2022-08-03T11:13:08;1.60;;;1.50;;
428;SDS011;201;48.758;9.290;2022-08-03T11:15:38;1.67;;;1.57;;
428;SDS011;201;48.758;9.290;2022-08-03T11:18:09;2.10;;;1.80;;
428;SDS011;201;48.758;9.290;2022-08-03T11:20:45;1.50;;;1.47;;
428;SDS011;201;48.758;9.290;2022-08-03T11:23:13;2.23;;;1.50;;
428;SDS011;201;48.758;9.290;2022-08-03T11:28:44;1.60;;;1.50;;
428;SDS011;201;48.758;9.290;2022-08-03T11:39:42;2.27;;;1.77;;
428;SDS011;201;48.758;9.290;2022-08-03T11:44:48;1.90;;;1.60;;
428;SDS011;201;48.758;9.290;2022-08-03T11:47:19;2.80;;;2.10;;
428;SDS011;201;48.758;9.290;2022-08-03T11:49:45;1.90;;;1.70;;
428;SDS011;201;48.758;9.290;2022-08-03T11:52:12;1.60;;;1.50;;
428;SDS011;201;48.758;9.290;2022-08-03T11:54:39;2.50;;;2.30;;
428;SDS011;201;48.758;9.290;2022-08-03T11:57:05;3.77;;;2.73;;
428;SDS011;201;48.758;9.290;2022-08-03T11:59:31;4.20;;;1.47;;
428;SDS011;201;48.758;9.290;2022-08-03T12:02:07;1.50;;;1.40;;
428;SDS011;201;48.758;9.290;2022-08-03T12:05:07;3.03;;;2.00;;
428;SDS011;201;48.758;9.290;2022-08-03T12:07:27;1.90;;;1.80;;
428;SDS011;201;48.758;9.290;2022-08-03T12:10:12;3.03;;;1.70;;
428;SDS011;201;48.758;9.290;2022-08-03T12:12:39;1.90;;;1.80;;
428;SDS011;201;48.758;9.290;2022-08-03T12:15:06;1.93;;;1.83;;
428;SDS011;201;48.758;9.290;2022-08-03T12:17:39;3.00;;;1.73;;
428;SDS011;201;48.758;9.290;2022-08-03T12:20:06;1.80;;;1.77;;
428;SDS011;201;48.758;9.290;2022-08-03T12:22:34;1.73;;;1.70;;
428;SDS011;201;48.758;9.290;2022-08-03T12:25:04;4.30;;;1.53;;
428;SDS011;201;48.758;9.290;2022-08-03T12:27:30;1.83;;;1.40;;
428;SDS011;201;48.758;9.290;2022-08-03T12:29:56;1.70;;;1.70;;
428;SDS011;201;48.758;9.290;2022-08-03T12:32:23;1.90;;;1.80;;
428;SDS011;201;48.758;9.290;2022-08-03T12:34:49;3.37;;;1.90;;
428;SDS011;201;48.758;9.290;2022-08-03T12:37:19;1.90;;;1.80;;
428;SDS011;201;48.758;9.290;2022-08-03T12:39:52;1.80;;;1.70;;
428;SDS011;201;48.758;9.290;2022-08-03T12:42:35;2.43;;;1.53;;
428;SDS011;201;48.758;9.290;2022-08-03T12:45:18;2.00;;;1.87;;
428;SDS011;201;48.758;9.290;2022-08-03T12:47:54;7.30;;;2.30;;
428;SDS011;201;48.758;9.290;2022-08-03T12:50:32;3.03;;;1.93;;
428;SDS011;201;48.758;9.290;2022-08-03T12:52:59;1.70;;;1.60;;
428;SDS011;201;48.758;9.290;2022-08-03T12:55:28;1.97;;;1.87;;
428;SDS011;201;48.758;9.290;2022-08-03T12:58:00;2.73;;;1.70;;
428;SDS011;201;48.758;9.290;2022-08-03T13:00:30;1.40;;;1.30;;
428;SDS011;201;48.758;9.290;2022-08-03T13:03:03;3.73;;;2.10;;
428;SDS011;201;48.758;9.290;2022-08-03T13:05:31;1.73;;;1.70;;
428;SDS011;201;48.758;9.290;2022-08-03T13:07:57;3.37;;;3.13;;
428;SDS011;201;48.758;9.290;2022-08-03T13:10:26;1.70;;;1.57;;
428;SDS011;201;48.758;9.290;2022-08-03T13:12:53;7.27;;;2.77;;
428;SDS011;201;48.758;9.290;2022-08-03T13:15:22;4.23;;;2.00;;
428;SDS011;201;48.758;9.290;2022-08-03T13:17:48;1.67;;;1.50;;
428;SDS011;201;48.758;9.290;2022-08-03T13:20:13;10.80;;;2.00;;
428;SDS011;201;48.758;9.290;2022-08-03T13:22:39;2.10;;;1.40;;
428;SDS011;201;48.758;9.290;2022-08-03T13:25:04;2.07;;;1.20;;
428;SDS011;201;48.758;9.290;2022-08-03T13:27:30;2.77;;;1.60;;
428;SDS011;201;48.758;9.290;2022-08-03T13:29:55;2.10;;;1.70;;
428;SDS011;201;48.758;9.290;2022-08-03T13:32:21;3.67;;;1.90;;
428;SDS011;201;48.758;9.290;2022-08-03T13:34:47;1.47;;;1.40;;
428;SDS011;201;48.758;9.290;2022-08-03T13:37:13;7.43;;;2.20;;
428;SDS011;201;48.758;9.290;2022-08-03T13:39:39;2.17;;;1.30;;
428;SDS011;201;48.758;9.290;2022-08-03T13:42:05;1.70;;;1.63;;
428;SDS011;201;48.758;9.290;2022-08-03T13:44:31;4.70;;;2.10;;
428;SDS011;201;48.758;9.290;2022-08-03T13:46:57;1.53;;;1.53;;
428;SDS011;201;48.758;9.290;2022-08-03T13:49:24;1.53;;;1.50;;
428;SDS011;201;48.758;9.290;2022-08-03T13:51:53;5.30;;;1.70;;
428;SDS011;201;48.758;9.290;2022-08-03T13:54:19;5.30;;;1.90;;
428;SDS011;201;48.758;9.290;2022-08-03T13:56:45;2.07;;;1.53;;
428;SDS011;201;48.758;9.290;2022-08-03T13:59:16;2.70;;;1.60;;
428;SDS011;201;48.758;9.290;2022-08-03T14:01:42;2.53;;;1.60;;
428;SDS011;201;48.758;9.290;2022-08-03T14:04:08;1.40;;;1.40;;
428;SDS011;201;48.758;9.290;2022-08-03T14:06:33;3.57;;;1.50;;
428;SDS011;201;48.758;9.290;2022-08-03T14:08:59;1.77;;;1.60;;
428;SDS011;201;48.758;9.290;2022-08-03T14:11:24;1.93;;;1.83;;
428;SDS011;201;48.758;9.290;2022-08-03T14:13:50;1.73;;;1.63;;
428;SDS011;201;48.758;9.290;2022-08-03T14:16:15;2.53;;;1.37;;
428;SDS011;201;48.758;9.290;2022-08-03T14:18:41;1.37;;;1.30;;
428;SDS011;201;48.758;9.290;2022-08-03T14:21:06;1.53;;;1.50;;
428;SDS011;201;48.758;9.290;2022-08-03T14:23:32;3.93;;;2.10;;
428;SDS011;201;48.758;9.290;2022-08-03T14:25:59;2.30;;;1.60;;
428;SDS011;201;48.758;9.290;2022-08-03T14:28:25;2.13;;;1.63;;
428;SDS011;201;48.758;9.290;2022-08-03T14:30:51;3.80;;;1.53;;
428;SDS011;201;48.758;9.290;2022-08-03T14:33:18;1.77;;;1.70;;
428;SDS011;201;48.758;9.290;2022-08-03T14:35:43;1.93;;;1.73;;
428;SDS011;201;48.758;9.290;2022-08-03T14:38:09;3.07;;;1.70;;
428;SDS011;201;48.758;9.290;2022-08-03T14:40:35;1.50;;;1.40;;
428;SDS011;201;48.758;9.290;2022-08-03T14:43:00;2.20;;;1.63;;
428;SDS011;201;48.758;9.290;2022-08-03T14:45:26;2.00;;;1.90;;
428;SDS011;201;48.758;9.290;2022-08-03T14:47:52;1.90;;;1.27;;
428;SDS011;201;48.758;9.290;2022-08-03T14:50:17;2.10;;;1.40;;
428;SDS011;201;48.758;9.290;2022-08-03T14:52:43;2.30;;;1.60;;
428;SDS011;201;48.758;9.290;2022-08-03T14:55:09;3.20;;;1.10;;
428;SDS011;201;48.758;9.290;2022-08-03T14:57:35;1.77;;;1.60;;
428;SDS011;201;48.758;9.290;2022-08-03T15:00:00;2.67;;;1.87;;
428;SDS011;201;48.758;9.290;2022-08-03T15:02:26;2.17;;;1.80;;
428;SDS011;201;48.758;9.290;2022-08-03T15:04:54;3.50;;;1.67;;
428;SDS011;201;48.758;9.290;2022-08-03T15:07:20;1.93;;;1.83;;
428;SDS011;201;48.758;9.290;2022-08-03T15:09:45;4.80;;;1.70;;
428;SDS011;201;48.758;9.290;2022-08-03T15:12:11;1.83;;;1.80;;
428;SDS011;201;48.758;9.290;2022-08-03T15:14:36;1.83;;;1.50;;
428;SDS011;201;48.758;9.290;2022-08-03T15:17:02;4.50;;;1.80;;
428;SDS011;201;48.758;9.290;2022-08-03T15:19:27;2.80;;;2.00;;
428;SDS011;201;48.758;9.290;2022-08-03T15:21:53;2.40;;;1.60;;
428;SDS011;201;48.758;9.290;2022-08-03T15:24:18;1.50;;;1.50;;
428;SDS011;201;48.758;9.290;2022-08-03T15:26:44;1.33;;;1.23;;
428;SDS011;201;48.758;9.290;2022-08-03T15:29:09;2.17;;;1.67;;
428;SDS011;201;48.758;9.290;2022-08-03T15:31:35;2.40;;;1.30;;
428;SDS011;201;48.758;9.290;2022-08-03T15:34:01;2.03;;;1.77;;
428;SDS011;201;48.758;9.290;2022-08-03T15:36:26;1.50;;;1.40;;
428;SDS011;201;48.758;9.290;2022-08-03T15:38:52;1.63;;;1.60;;
428;SDS011;201;48.758;9.290;2022-08-03T15:41:17;1.87;;;1.87;;
428;SDS011;201;48.758;9.290;2022-08-03T15:43:43;2.10;;;1.80;;
428;SDS011;201;48.758;9.290;2022-08-03T15:46:10;1.90;;;1.70;;
428;SDS011;201;48.758;9.290;2022-08-03T15:48:36;3.33;;;1.70;;
428;SDS011;201;48.758;9.290;2022-08-03T15:51:03;3.07;;;1.67;;
428;SDS011;201;48.758;9.290;2022-08-03T15:53:29;3.23;;;1.80;;
428;SDS011;201;48.758;9.290;2022-08-03T15:55:55;1.60;;;1.60;;
428;SDS011;201;48.758;9.290;2022-08-03T15:58:20;1.73;;;1.63;;
428;SDS011;201;48.758;9.290;2022-08-03T16:00:46;1.50;;;1.43;;
428;SDS011;201;48.758;9.290;2022-08-03T16:03:11;2.20;;;1.67;;
428;SDS011;201;48.758;9.290;2022-08-03T16:05:37;2.70;;;2.13;;
428;SDS011;201;48.758;9.290;2022-08-03T16:08:02;1.70;;;1.60;;
428;SDS011;201;48.758;9.290;2022-08-03T16:10:28;2.43;;;1.70;;
428;SDS011;201;48.758;9.290;2022-08-03T16:12:54;1.67;;;1.60;;
428;SDS011;201;48.758;9.290;2022-08-03T16:15:20;2.70;;;1.67;;
428;SDS011;201;48.758;9.290;2022-08-03T16:17:46;1.50;;;1.50;;
428;SDS011;201;48.758;9.290;2022-08-03T16:20:12;1.80;;;1.67;;
428;SDS011;201;48.758;9.290;2022-08-03T16:22:43;2.83;;;1.60;;
428;SDS011;201;48.758;9.290;2022-08-03T16:25:11;2.60;;;1.93;;